»·PEaware :: CNS475 KSNA-KHND

CNS475 :: KSNA-KHND

FLIGHT INFORMATION

Flight Status: Arrived
Operator:
Conesul VA
More flights by this operator :: More flights under this callsign
Pilot: Craig H. (6968)
Aircraft: Unknown
(E50P)
More flights by this aircraft type
Origin: KSNA John Wayne-Orange Co
United States
Destination: KHND Henderson
United States
More flights between these airports :: More routes between these airports
Route: +MUSEL8 DAG JOMIX1
File this flight plan on PilotEdge
Remarks:
Altitude:
(Current/Filed)
29,000ft
Speed:
(Current/Filed)
400kts
Departed: 22-Mar-20 06:04 PM
Arrived: 22-Mar-20 06:49 PM
Distance/Time
Traveled:
193nm/0:45
Distance/Time
To Go:
Arrived

Flight Plot

Page will automatically refresh every two minutes.

Flight plan parsing failed; only flown route is shown


Map Options




Map Legend


Flown Route
Filed Route
Departure Airport
Arrival Airport
Navaid (VOR, NDB)
Fix

Horizontal Profiles

Position Reports

Time Latitude Longitude Heading Altitude Ground
Speed
22-Mar-20 17:47 33.666036 -117.873048 41 63ft 0kts
22-Mar-20 17:48 33.666036 -117.873048 41 63ft 0kts
22-Mar-20 17:49 33.666036 -117.873048 41 63ft 0kts
22-Mar-20 17:50 33.666036 -117.873048 41 63ft 0kts
22-Mar-20 17:51 33.666036 -117.873048 41 63ft 0kts
22-Mar-20 17:52 33.666036 -117.873048 41 63ft 0kts
22-Mar-20 17:53 33.666036 -117.873048 41 63ft 0kts
22-Mar-20 17:55 33.666036 -117.873048 41 63ft 0kts
22-Mar-20 17:56 33.666036 -117.873048 41 63ft 0kts
22-Mar-20 17:57 33.666036 -117.873048 41 63ft 0kts
22-Mar-20 17:58 33.666036 -117.873048 41 63ft 0kts
22-Mar-20 17:59 33.666327 -117.873339 336 63ft 8kts
22-Mar-20 18:00 33.669642 -117.870375 39 63ft 15kts
22-Mar-20 18:01 33.673061 -117.867316 48 63ft 12kts
22-Mar-20 18:02 33.676746 -117.864798 26 63ft 15kts
22-Mar-20 18:03 33.680440 -117.862803 332 63ft 14kts
22-Mar-20 18:04 33.680599 -117.865727 207 63ft 47kts
22-Mar-20 18:05 33.647120 -117.886527 203 2316ft 189kts
22-Mar-20 18:06 33.587170 -117.899218 188 5423ft 261kts
22-Mar-20 18:07 33.514314 -117.912510 188 7971ft 263kts
22-Mar-20 18:08 33.446057 -117.924945 188 7980ft 241kts
22-Mar-20 18:09 33.383273 -117.936375 188 7978ft 213kts
22-Mar-20 18:10 33.340119 -117.971669 270 7985ft 230kts
22-Mar-20 18:11 33.395967 -118.015136 354 9769ft 300kts
22-Mar-20 18:12 33.481803 -118.023421 353 13457ft 326kts
22-Mar-20 18:12 33.561696 -118.031690 351 16864ft 373kts
22-Mar-20 18:14 33.689515 -118.044958 351 17961ft 410kts
22-Mar-20 18:15 33.807220 -118.031050 26 22721ft 466kts
22-Mar-20 18:15 33.897781 -117.948980 34 26120ft 507kts
22-Mar-20 18:16 34.016334 -117.843255 33 29099ft 554kts
22-Mar-20 18:18 34.151321 -117.687996 47 29118ft 596kts
22-Mar-20 18:18 34.243073 -117.564523 47 29129ft 606kts
22-Mar-20 18:19 34.355448 -117.412178 47 29102ft 609kts
22-Mar-20 18:20 34.467291 -117.259863 48 29068ft 611kts
22-Mar-20 18:21 34.580135 -117.105617 48 29074ft 611kts
22-Mar-20 18:22 34.692477 -116.951213 46 29066ft 608kts
22-Mar-20 18:23 34.803530 -116.798114 46 29027ft 603kts
22-Mar-20 18:24 34.907160 -116.637334 63 29027ft 606kts
22-Mar-20 18:25 34.941535 -116.441843 99 29039ft 584kts
22-Mar-20 18:26 34.916671 -116.248597 107 29059ft 575kts
22-Mar-20 18:27 34.889324 -116.057232 107 29100ft 576kts
22-Mar-20 18:28 34.861709 -115.864837 107 29107ft 578kts
22-Mar-20 18:29 34.834018 -115.673288 107 29108ft 557kts
22-Mar-20 18:30 34.805638 -115.481106 106 28703ft 593kts
22-Mar-20 18:31 34.815420 -115.292236 58 26312ft 571kts
22-Mar-20 18:32 34.930551 -115.189230 28 23916ft 472kts
22-Mar-20 18:33 35.030926 -115.104228 38 21586ft 414kts
22-Mar-20 18:34 35.118312 -115.024646 39 19249ft 378kts
22-Mar-20 18:35 35.199633 -114.952470 28 16785ft 350kts
22-Mar-20 18:36 35.290650 -114.922735 13 14139ft 330kts
22-Mar-20 18:37 35.376468 -114.898474 14 11610ft 304kts
22-Mar-20 18:38 35.455011 -114.885415 346 9974ft 271kts
22-Mar-20 18:39 35.526582 -114.911129 343 9974ft 266kts
22-Mar-20 18:40 35.597272 -114.937077 343 9859ft 267kts
22-Mar-20 18:41 35.664117 -114.961490 343 8905ft 281kts
22-Mar-20 18:42 35.734438 -115.003224 321 7852ft 280kts
22-Mar-20 18:43 35.790967 -115.059368 321 6901ft 237kts
22-Mar-20 18:44 35.840656 -115.100273 334 6083ft 208kts
22-Mar-20 18:45 35.887699 -115.125791 342 4790ft 138kts
22-Mar-20 18:46 35.921486 -115.135373 355 3682ft 117kts
22-Mar-20 18:47 35.952840 -115.135708 4 2815ft 109kts
22-Mar-20 18:48 35.976539 -115.135388 0 2419ft 27kts
22-Mar-20 18:49 35.977430 -115.136600 269 2415ft 9kts
22-Mar-20 18:50 35.977500 -115.138121 87 2412ft 5kts

Navigation Log

Ident Type
Flight plan parsing failed, navigation log unavailable